Time;durP1;ratioP1;P1;durP2;ratioP2;P2;SDS_P1;SDS_P2;PMS_P1;PMS_P2;Temp;Humidity;BMP_temperature;BMP_pressure;BME280_temperature;BME280_humidity;BME280_pressure;Samples;Min_cycle;Max_cycle;Signal;HPM_P1;HPM_P2
2023/11/12 00:00:27;;;;;;;;;;;6.30;99.90;;;;;;5052909;28;20292;-75
2023/11/12 00:02:53;;;;;;;;;;;6.40;99.90;;;;;;5071063;28;20078;-75
2023/11/12 00:05:19;;;;;;;;;;;6.40;99.90;;;;;;5071755;28;20429;-75
2023/11/12 00:07:45;;;;;;;;;;;6.30;99.90;;;;;;5071281;28;20027;-75
2023/11/12 00:10:13;;;;;;;;;;;6.40;99.90;;;;;;5053301;28;20067;-75
2023/11/12 00:12:39;;;;;;;;;;;6.30;99.90;;;;;;5071059;28;19908;-74
2023/11/12 00:15:05;;;;;;;;;;;6.30;99.90;;;;;;5070452;28;19928;-75
2023/11/12 00:17:31;;;;;;;;;;;6.30;99.90;;;;;;5053055;28;20368;-75
2023/11/12 00:19:57;;;;;;;;;;;6.30;99.90;;;;;;5070967;28;20066;-76
2023/11/12 00:22:22;;;;;;;;;;;6.30;99.90;;;;;;5072320;28;20092;-74
2023/11/12 00:24:48;;;;;;;;;;;6.20;99.90;;;;;;5068889;28;19911;-75
2023/11/12 00:27:13;;;;;;;;;;;6.30;99.90;;;;;;5068449;28;19944;-75
2023/11/12 00:29:40;;;;;;;;;;;6.20;99.90;;;;;;5068870;28;20376;-75
2023/11/12 00:32:07;;;;;;;;;;;6.20;99.90;;;;;;5052163;28;19905;-75
2023/11/12 00:34:33;;;;;;;;;;;6.20;99.90;;;;;;5052194;28;19950;-75
2023/11/12 00:36:59;;;;;;;;;;;6.20;99.90;;;;;;5069968;28;19987;-75
2023/11/12 00:39:26;;;;;;;;;;;6.20;99.90;;;;;;5069596;28;19995;-75
2023/11/12 00:41:52;;;;;;;;;;;6.20;99.90;;;;;;5069988;28;19961;-75
2023/11/12 00:44:17;;;;;;;;;;;6.10;99.90;;;;;;5069762;28;19912;-74
2023/11/12 00:46:43;;;;;;;;;;;6.10;99.90;;;;;;5069708;28;20385;-75
2023/11/12 00:49:08;;;;;;;;;;;6.10;99.90;;;;;;5051980;28;19923;-75
2023/11/12 00:51:35;;;;;;;;;;;6.10;99.90;;;;;;5069584;28;19908;-75
2023/11/12 00:54:01;;;;;;;;;;;6.10;99.90;;;;;;5069988;28;19908;-75
2023/11/12 00:56:26;;;;;;;;;;;6.10;99.90;;;;;;5069886;28;20003;-75
2023/11/12 00:58:52;;;;;;;;;;;6.00;99.90;;;;;;5069925;28;19916;-75
2023/11/12 01:01:18;;;;;;;;;;;6.00;99.90;;;;;;5052042;28;19904;-75
2023/11/12 01:03:44;;;;;;;;;;;6.00;99.90;;;;;;5051810;28;20299;-75
2023/11/12 01:06:09;;;;;;;;;;;6.00;99.90;;;;;;5068574;28;19904;-75
2023/11/12 01:08:35;;;;;;;;;;;6.00;99.90;;;;;;5068132;28;20303;-75
2023/11/12 01:11:00;;;;;;;;;;;6.00;99.90;;;;;;5069759;28;19977;-75
2023/11/12 01:13:26;;;;;;;;;;;6.00;99.90;;;;;;5070013;28;19939;-75
2023/11/12 01:15:52;;;;;;;;;;;6.00;99.90;;;;;;5069587;28;20301;-75
2023/11/12 01:18:18;;;;;;;;;;;6.00;99.90;;;;;;5051729;28;19908;-75
2023/11/12 01:20:43;;;;;;;;;;;6.00;99.90;;;;;;5069379;28;19905;-76
2023/11/12 01:23:09;;;;;;;;;;;6.00;99.90;;;;;;5069775;28;19904;-75
2023/11/12 01:25:35;;;;;;;;;;;6.00;99.90;;;;;;5069585;28;19991;-75
2023/11/12 01:28:02;;;;;;;;;;;6.00;99.90;;;;;;5072369;28;19935;-75
2023/11/12 01:30:27;;;;;;;;;;;6.00;99.90;;;;;;5073144;28;19916;-74
2023/11/12 01:32:53;;;;;;;;;;;5.90;99.90;;;;;;5055484;28;19908;-75
2023/11/12 01:35:21;;;;;;;;;;;6.00;99.90;;;;;;5055376;28;20376;-75
2023/11/12 01:37:47;;;;;;;;;;;6.00;99.90;;;;;;5073317;28;20361;-75
2023/11/12 01:40:15;;;;;;;;;;;6.00;99.90;;;;;;5071817;28;20007;-75
2023/11/12 01:42:42;;;;;;;;;;;6.00;99.90;;;;;;5073170;28;19912;-74
2023/11/12 01:45:09;;;;;;;;;;;6.00;99.90;;;;;;5073303;28;19908;-75
2023/11/12 01:47:39;;;;;;;;;;;5.90;99.90;;;;;;5055106;28;19917;-75
2023/11/12 01:50:06;;;;;;;;;;;5.90;99.90;;;;;;5072752;28;19905;-75
2023/11/12 01:52:32;;;;;;;;;;;6.00;99.90;;;;;;5073138;28;19908;-75
2023/11/12 01:54:58;;;;;;;;;;;6.00;99.90;;;;;;5073005;28;20383;-74
2023/11/12 01:57:25;;;;;;;;;;;6.00;99.90;;;;;;5071362;28;19908;-75
2023/11/12 01:59:50;;;;;;;;;;;5.90;99.90;;;;;;5073284;28;19919;-75
2023/11/12 02:02:16;;;;;;;;;;;6.00;99.90;;;;;;5072661;28;19905;-75
2023/11/12 02:04:42;;;;;;;;;;;5.90;99.90;;;;;;5073067;28;19914;-75
2023/11/12 02:07:07;;;;;;;;;;;6.00;99.90;;;;;;5072952;28;19958;-75
2023/11/12 02:09:33;;;;;;;;;;;5.90;99.90;;;;;;5054961;28;19954;-75
2023/11/12 02:11:58;;;;;;;;;;;6.00;99.90;;;;;;5073224;28;19904;-75
2023/11/12 02:14:25;;;;;;;;;;;6.00;99.90;;;;;;5072676;28;19915;-75
2023/11/12 02:16:51;;;;;;;;;;;5.90;99.90;;;;;;5072807;28;19913;-75
2023/11/12 02:19:26;;;;;;;;;;;5.90;99.90;;;;;;5072345;28;20388;-75
2023/11/12 02:21:53;;;;;;;;;;;5.90;99.90;;;;;;5072786;28;19904;-75
2023/11/12 02:24:19;;;;;;;;;;;5.90;99.90;;;;;;5071616;28;20383;-74
2023/11/12 02:26:46;;;;;;;;;;;5.90;99.90;;;;;;5072864;28;19912;-75
2023/11/12 02:29:12;;;;;;;;;;;5.90;99.90;;;;;;5054706;28;19913;-75
2023/11/12 02:31:37;;;;;;;;;;;5.90;99.90;;;;;;5072732;28;20352;-75
2023/11/12 02:34:03;;;;;;;;;;;6.00;99.90;;;;;;5072329;28;19961;-74
2023/11/12 02:36:29;;;;;;;;;;;6.00;99.90;;;;;;5073799;28;20069;-76
2023/11/12 02:38:54;;;;;;;;;;;5.90;99.90;;;;;;5073482;28;19914;-75
2023/11/12 02:41:23;;;;;;;;;;;5.90;99.90;;;;;;5071540;28;20257;-75
2023/11/12 02:43:49;;;;;;;;;;;6.00;99.90;;;;;;5053970;28;19955;-75
2023/11/12 02:46:15;;;;;;;;;;;6.00;99.90;;;;;;5071729;28;19908;-75
2023/11/12 02:49:00;;;;;;;;;;;6.00;99.90;;;;;;5053666;28;19943;-75
2023/11/12 02:51:26;;;;;;;;;;;6.00;99.90;;;;;;5071797;28;20360;-75
2023/11/12 02:53:54;;;;;;;;;;;5.90;99.90;;;;;;5071786;28;19999;-75
2023/11/12 02:56:21;;;;;;;;;;;6.00;99.90;;;;;;5071579;28;19904;-75
2023/11/12 02:58:48;;;;;;;;;;;5.90;99.90;;;;;;5053749;28;20292;-75
2023/11/12 03:01:14;;;;;;;;;;;6.00;99.90;;;;;;5071638;28;19911;-75
2023/11/12 03:03:39;;;;;;;;;;;5.90;99.90;;;;;;5053693;28;19904;-75
2023/11/12 03:06:05;;;;;;;;;;;5.90;99.90;;;;;;5071196;28;19908;-75
2023/11/12 03:08:30;;;;;;;;;;;5.90;99.90;;;;;;5053133;28;19923;-75
2023/11/12 03:10:56;;;;;;;;;;;5.90;99.90;;;;;;5072471;28;19943;-75
2023/11/12 03:13:22;;;;;;;;;;;5.80;99.90;;;;;;5069784;28;19916;-74
2023/11/12 03:15:47;;;;;;;;;;;5.80;99.90;;;;;;5053262;28;20427;-75
2023/11/12 03:18:13;;;;;;;;;;;5.90;99.90;;;;;;5071113;28;20343;-75
2023/11/12 03:20:39;;;;;;;;;;;5.80;99.90;;;;;;5070377;28;19910;-73
2023/11/12 03:23:04;;;;;;;;;;;5.90;99.90;;;;;;5052929;28;19908;-74
2023/11/12 03:25:30;;;;;;;;;;;5.80;99.90;;;;;;5071029;28;19970;-74
2023/11/12 03:27:55;;;;;;;;;;;5.80;99.90;;;;;;5070809;28;19985;-75
2023/11/12 03:30:21;;;;;;;;;;;5.80;99.90;;;;;;5070677;28;20377;-74
2023/11/12 03:32:46;;;;;;;;;;;5.80;99.90;;;;;;5070885;28;19947;-75
2023/11/12 03:35:12;;;;;;;;;;;5.80;99.90;;;;;;5070712;28;19912;-75
2023/11/12 03:37:37;;;;;;;;;;;5.80;99.90;;;;;;5070967;28;19918;-75
2023/11/12 03:40:04;;;;;;;;;;;5.80;99.90;;;;;;5069267;28;20389;-75
2023/11/12 03:42:29;;;;;;;;;;;5.70;99.90;;;;;;5070946;28;19904;-75
2023/11/12 03:44:56;;;;;;;;;;;5.80;99.90;;;;;;5071076;28;20281;-75
2023/11/12 03:47:23;;;;;;;;;;;5.70;99.90;;;;;;5065758;28;19916;-74
2023/11/12 03:49:48;;;;;;;;;;;5.80;99.90;;;;;;5049849;28;19912;-74
2023/11/12 03:52:14;;;;;;;;;;;5.80;99.90;;;;;;5032629;28;20400;-75
2023/11/12 03:54:40;;;;;;;;;;;5.70;99.90;;;;;;5050113;28;19909;-75
2023/11/12 03:57:05;;;;;;;;;;;5.80;99.90;;;;;;5032572;28;19916;-75
2023/11/12 03:59:31;;;;;;;;;;;5.70;99.90;;;;;;5050087;28;19909;-75
2023/11/12 04:01:56;;;;;;;;;;;5.70;99.90;;;;;;5050503;28;20384;-74
2023/11/12 04:04:22;;;;;;;;;;;5.60;99.90;;;;;;5050373;28;19917;-74
2023/11/12 04:06:47;;;;;;;;;;;5.70;99.90;;;;;;5050824;28;19935;-75
2023/11/12 04:09:13;;;;;;;;;;;5.60;99.90;;;;;;5033104;28;19938;-75
2023/11/12 04:11:40;;;;;;;;;;;5.50;99.90;;;;;;5032518;28;19954;-75
2023/11/12 04:14:07;;;;;;;;;;;5.60;99.90;;;;;;5050683;28;20440;-75
2023/11/12 04:16:34;;;;;;;;;;;5.60;99.90;;;;;;5032524;28;19908;-76
2023/11/12 04:19:03;;;;;;;;;;;5.50;99.90;;;;;;5050665;28;20379;-75
2023/11/12 04:21:31;;;;;;;;;;;5.60;99.90;;;;;;5050716;28;20288;-74
2023/11/12 04:23:58;;;;;;;;;;;5.50;99.90;;;;;;5050713;28;20396;-75
2023/11/12 04:26:24;;;;;;;;;;;5.60;99.90;;;;;;5050790;28;19958;-75
2023/11/12 04:28:50;;;;;;;;;;;5.60;99.90;;;;;;5032969;28;19917;-75
2023/11/12 04:31:15;;;;;;;;;;;5.60;99.90;;;;;;5050647;28;19915;-75
2023/11/12 04:33:41;;;;;;;;;;;5.60;99.90;;;;;;5032960;28;20442;-75
2023/11/12 04:36:07;;;;;;;;;;;5.60;99.90;;;;;;5032867;28;19999;-75
2023/11/12 04:38:33;;;;;;;;;;;5.60;99.90;;;;;;5032552;28;19967;-74
2023/11/12 04:40:58;;;;;;;;;;;5.60;99.90;;;;;;5032850;28;19904;-75
2023/11/12 04:43:24;;;;;;;;;;;5.50;99.90;;;;;;5032838;28;20018;-75
2023/11/12 04:45:49;;;;;;;;;;;5.50;99.90;;;;;;5067166;28;19927;-76
2023/11/12 04:48:15;;;;;;;;;;;5.50;99.90;;;;;;5050784;28;20443;-75
2023/11/12 04:50:41;;;;;;;;;;;5.50;99.90;;;;;;5033734;28;19913;-76
2023/11/12 04:53:06;;;;;;;;;;;5.50;99.90;;;;;;5033534;28;20372;-75
2023/11/12 04:55:32;;;;;;;;;;;5.50;99.90;;;;;;5049895;28;19916;-75
2023/11/12 04:57:58;;;;;;;;;;;5.50;99.90;;;;;;5048616;28;19912;-74
2023/11/12 05:00:23;;;;;;;;;;;5.40;99.90;;;;;;5049996;28;19959;-75
2023/11/12 05:02:49;;;;;;;;;;;5.40;99.90;;;;;;5053904;28;19912;-75
2023/11/12 05:05:15;;;;;;;;;;;5.40;99.90;;;;;;5053917;28;19978;-75
2023/11/12 05:07:40;;;;;;;;;;;5.30;99.90;;;;;;5053439;28;20399;-75
2023/11/12 05:10:08;;;;;;;;;;;5.30;99.90;;;;;;5053489;28;20330;-74
2023/11/12 05:12:34;;;;;;;;;;;5.20;99.90;;;;;;5035521;28;19905;-75
2023/11/12 05:15:00;;;;;;;;;;;5.20;99.90;;;;;;5053470;28;19912;-75
2023/11/12 05:17:26;;;;;;;;;;;5.30;99.90;;;;;;5035592;28;19934;-76
2023/11/12 05:19:51;;;;;;;;;;;5.20;99.90;;;;;;5053469;28;20008;-75
2023/11/12 05:22:17;;;;;;;;;;;5.20;99.90;;;;;;5053566;28;19908;-75
2023/11/12 05:24:43;;;;;;;;;;;5.20;99.90;;;;;;5053363;28;19909;-75
2023/11/12 05:27:09;;;;;;;;;;;5.20;99.90;;;;;;5053521;28;19909;-75
2023/11/12 05:29:34;;;;;;;;;;;5.20;99.90;;;;;;5051876;28;19912;-74
2023/11/12 05:32:00;;;;;;;;;;;5.20;99.90;;;;;;5053583;28;19958;-75
2023/11/12 05:34:25;;;;;;;;;;;5.20;99.90;;;;;;5052812;28;19916;-73
2023/11/12 05:36:51;;;;;;;;;;;5.40;99.90;;;;;;5053099;28;19908;-75
2023/11/12 05:39:17;;;;;;;;;;;5.20;99.90;;;;;;5034982;28;20273;-75
2023/11/12 05:41:43;;;;;;;;;;;5.20;99.90;;;;;;5053061;28;20353;-75
2023/11/12 05:44:08;;;;;;;;;;;5.30;99.90;;;;;;5052937;28;19913;-75
2023/11/12 05:46:34;;;;;;;;;;;5.20;99.90;;;;;;5038098;28;19965;-75
2023/11/12 05:48:59;;;;;;;;;;;5.20;99.90;;;;;;5054590;28;20304;-75
2023/11/12 05:51:25;;;;;;;;;;;5.20;99.90;;;;;;5054660;28;20003;-75
2023/11/12 05:53:51;;;;;;;;;;;5.20;99.90;;;;;;5054863;28;19915;-75
2023/11/12 05:56:16;;;;;;;;;;;5.30;99.90;;;;;;5072546;28;19908;-75
2023/11/12 05:58:42;;;;;;;;;;;5.30;99.90;;;;;;5072390;28;20422;-75
2023/11/12 06:01:07;;;;;;;;;;;5.30;99.90;;;;;;5072701;28;20408;-75
2023/11/12 06:03:33;;;;;;;;;;;5.30;99.90;;;;;;5071322;28;19908;-75
2023/11/12 06:05:58;;;;;;;;;;;5.30;99.90;;;;;;5072880;28;19908;-75
2023/11/12 06:08:24;;;;;;;;;;;5.30;99.90;;;;;;5071330;28;20438;-75
2023/11/12 06:10:49;;;;;;;;;;;5.40;99.90;;;;;;5072492;28;20007;-75
2023/11/12 06:13:15;;;;;;;;;;;5.30;99.90;;;;;;5053994;28;19953;-75
2023/11/12 06:15:41;;;;;;;;;;;5.40;99.90;;;;;;5072525;28;20008;-75
2023/11/12 06:18:06;;;;;;;;;;;5.30;99.90;;;;;;5072462;28;20288;-75
2023/11/12 06:20:33;;;;;;;;;;;5.40;99.90;;;;;;5072818;28;19908;-75
2023/11/12 06:22:58;;;;;;;;;;;5.50;99.90;;;;;;5072757;28;19904;-75
2023/11/12 06:25:25;;;;;;;;;;;5.50;99.90;;;;;;5054492;28;19909;-75
2023/11/12 06:27:51;;;;;;;;;;;5.50;99.90;;;;;;5072796;28;19916;-75
2023/11/12 06:30:16;;;;;;;;;;;5.60;99.90;;;;;;5071896;28;20291;-75
2023/11/12 06:32:42;;;;;;;;;;;5.60;99.90;;;;;;5071952;28;20411;-75
2023/11/12 06:35:08;;;;;;;;;;;5.60;99.90;;;;;;5072444;28;19905;-74
2023/11/12 06:37:33;;;;;;;;;;;5.80;99.90;;;;;;5072105;28;19919;-75
2023/11/12 06:39:59;;;;;;;;;;;6.00;99.90;;;;;;5072090;28;20003;-75
2023/11/12 06:42:25;;;;;;;;;;;6.10;99.90;;;;;;5050987;28;19934;-75
2023/11/12 06:44:50;;;;;;;;;;;6.30;99.90;;;;;;5069815;28;20396;-75
2023/11/12 06:47:16;;;;;;;;;;;6.50;99.90;;;;;;5045156;28;20412;-75
2023/11/12 06:49:42;;;;;;;;;;;6.60;99.90;;;;;;5052519;28;20408;-75
2023/11/12 06:52:07;;;;;;;;;;;6.70;99.90;;;;;;5052083;28;19914;-75
2023/11/12 06:54:33;;;;;;;;;;;6.70;99.90;;;;;;5050774;28;20300;-74
2023/11/12 06:56:59;;;;;;;;;;;6.70;99.90;;;;;;5043622;28;20003;-75
2023/11/12 06:59:25;;;;;;;;;;;6.80;99.90;;;;;;5050284;28;19958;-75
2023/11/12 07:01:50;;;;;;;;;;;6.70;99.90;;;;;;5051119;28;19917;-74
2023/11/12 07:04:16;;;;;;;;;;;6.80;99.90;;;;;;5018661;28;20520;-76
2023/11/12 07:06:42;;;;;;;;;;;6.80;99.90;;;;;;5051984;28;19908;-74
2023/11/12 07:09:08;;;;;;;;;;;6.90;99.90;;;;;;5051238;28;19924;-75
2023/11/12 07:11:33;;;;;;;;;;;7.00;99.90;;;;;;5051385;28;19991;-75
2023/11/12 07:13:59;;;;;;;;;;;7.20;99.90;;;;;;5049926;28;20007;-75
2023/11/12 07:16:25;;;;;;;;;;;7.10;99.90;;;;;;5051186;28;19988;-74
2023/11/12 07:18:50;;;;;;;;;;;7.20;99.90;;;;;;5050722;28;20192;-75
2023/11/12 07:21:25;;;;;;;;;;;7.20;99.90;;;;;;5032810;28;19948;-75
2023/11/12 07:23:51;;;;;;;;;;;7.20;99.90;;;;;;5051042;28;19948;-74
2023/11/12 07:26:16;;;;;;;;;;;7.20;99.90;;;;;;5033060;28;19904;-75
2023/11/12 07:28:42;;;;;;;;;;;7.20;99.90;;;;;;5032645;28;19963;-75
2023/11/12 07:31:08;;;;;;;;;;;7.20;99.90;;;;;;5023531;28;19906;-75
2023/11/12 07:33:34;;;;;;;;;;;7.10;99.90;;;;;;5013158;28;20321;-75
2023/11/12 07:35:59;;;;;;;;;;;7.00;99.90;;;;;;5033412;28;19908;-75
2023/11/12 07:38:25;;;;;;;;;;;7.00;99.90;;;;;;5030719;28;19916;-74
2023/11/12 07:40:50;;;;;;;;;;;7.00;99.90;;;;;;5012892;28;20003;-74
2023/11/12 07:43:16;;;;;;;;;;;7.00;99.90;;;;;;5038226;28;20472;-74
2023/11/12 07:45:42;;;;;;;;;;;7.00;99.90;;;;;;5047103;28;19909;-75
2023/11/12 07:48:08;;;;;;;;;;;7.00;99.90;;;;;;5048086;28;19999;-75
2023/11/12 07:50:33;;;;;;;;;;;7.00;99.90;;;;;;5050328;28;19909;-75
2023/11/12 07:52:59;;;;;;;;;;;7.00;99.90;;;;;;5032684;28;19913;-75
2023/11/12 07:55:25;;;;;;;;;;;7.10;99.90;;;;;;5032342;28;19939;-75
2023/11/12 07:57:51;;;;;;;;;;;7.20;99.90;;;;;;5050358;28;20117;-75
2023/11/12 08:00:19;;;;;;;;;;;7.20;99.90;;;;;;5050336;28;19908;-75
2023/11/12 08:02:47;;;;;;;;;;;7.30;99.90;;;;;;5050182;28;19959;-75
2023/11/12 08:05:12;;;;;;;;;;;7.40;99.90;;;;;;5050282;28;19905;-75
2023/11/12 08:07:38;;;;;;;;;;;7.40;99.90;;;;;;5050039;28;19959;-75
2023/11/12 08:10:05;;;;;;;;;;;7.50;99.90;;;;;;5050054;28;19916;-75
2023/11/12 08:12:31;;;;;;;;;;;7.50;99.90;;;;;;5032171;28;19913;-75
2023/11/12 08:14:57;;;;;;;;;;;7.50;99.90;;;;;;5050244;28;19909;-76
2023/11/12 08:17:23;;;;;;;;;;;7.50;99.90;;;;;;5050119;28;20266;-75
2023/11/12 08:19:48;;;;;;;;;;;7.60;99.90;;;;;;5032325;28;19931;-74
2023/11/12 08:22:14;;;;;;;;;;;7.70;99.90;;;;;;5032036;28;19904;-75
2023/11/12 08:24:40;;;;;;;;;;;7.80;99.90;;;;;;5031981;28;20381;-75
2023/11/12 08:27:07;;;;;;;;;;;7.90;99.90;;;;;;5049910;28;19908;-75
2023/11/12 08:29:34;;;;;;;;;;;8.00;99.90;;;;;;5032284;28;19922;-75
2023/11/12 08:32:00;;;;;;;;;;;8.00;99.90;;;;;;5032185;28;19908;-75
2023/11/12 08:34:25;;;;;;;;;;;8.10;99.90;;;;;;5050947;28;19909;-75
2023/11/12 08:36:52;;;;;;;;;;;8.20;99.90;;;;;;5038903;28;19909;-75
2023/11/12 08:39:17;;;;;;;;;;;8.30;99.90;;;;;;5056629;28;20007;-75
2023/11/12 08:41:47;;;;;;;;;;;8.40;99.90;;;;;;5048586;28;20012;-74
2023/11/12 08:44:13;;;;;;;;;;;8.40;99.90;;;;;;5056263;28;19912;-75
2023/11/12 08:46:39;;;;;;;;;;;8.40;99.90;;;;;;5059009;28;19920;-75
2023/11/12 08:49:06;;;;;;;;;;;8.40;99.90;;;;;;5057990;28;19912;-74
2023/11/12 08:51:33;;;;;;;;;;;8.50;99.90;;;;;;5058661;28;19928;-75
2023/11/12 08:53:59;;;;;;;;;;;8.60;99.90;;;;;;5058560;28;19947;-75
2023/11/12 08:56:25;;;;;;;;;;;8.50;99.90;;;;;;5058262;28;19952;-75
2023/11/12 08:58:51;;;;;;;;;;;8.60;99.90;;;;;;5058529;28;20388;-74
2023/11/12 09:01:17;;;;;;;;;;;8.60;99.90;;;;;;5058492;28;20019;-75
2023/11/12 09:03:42;;;;;;;;;;;8.60;99.90;;;;;;5076474;28;19904;-75
2023/11/12 09:06:08;;;;;;;;;;;8.60;99.90;;;;;;5076116;28;19948;-74
2023/11/12 09:08:33;;;;;;;;;;;8.60;99.90;;;;;;5058302;28;19912;-75
2023/11/12 09:10:59;;;;;;;;;;;8.60;99.90;;;;;;5058628;28;19966;-75
2023/11/12 09:13:25;;;;;;;;;;;8.60;99.90;;;;;;5077307;28;19911;-75
2023/11/12 09:15:50;;;;;;;;;;;8.60;99.90;;;;;;5060975;28;20483;-75
2023/11/12 09:18:16;;;;;;;;;;;8.70;99.90;;;;;;5077189;28;20335;-75
2023/11/12 09:20:43;;;;;;;;;;;8.70;99.90;;;;;;5066999;28;20349;-75
2023/11/12 09:23:08;;;;;;;;;;;8.80;99.90;;;;;;5055241;28;20721;-75
2023/11/12 09:25:35;;;;;;;;;;;8.80;99.90;;;;;;5076082;28;19914;-75
2023/11/12 09:28:02;;;;;;;;;;;8.80;99.90;;;;;;5057711;28;19920;-75
2023/11/12 09:30:31;;;;;;;;;;;8.90;99.90;;;;;;5057725;28;19908;-75
2023/11/12 09:32:56;;;;;;;;;;;9.00;99.90;;;;;;5076087;28;20709;-75
2023/11/12 09:35:23;;;;;;;;;;;8.90;99.90;;;;;;5076048;28;19912;-75
2023/11/12 09:37:50;;;;;;;;;;;9.00;99.90;;;;;;5075693;28;19912;-75
2023/11/12 09:40:16;;;;;;;;;;;9.00;99.90;;;;;;5076005;28;19904;-75
2023/11/12 09:42:47;;;;;;;;;;;9.00;99.90;;;;;;5057518;28;19908;-73
2023/11/12 09:45:14;;;;;;;;;;;9.10;99.90;;;;;;5076139;28;20589;-76
2023/11/12 09:47:40;;;;;;;;;;;9.20;99.90;;;;;;5071592;28;19916;-74
2023/11/12 09:50:07;;;;;;;;;;;9.20;99.90;;;;;;5054922;28;19912;-74
2023/11/12 09:52:33;;;;;;;;;;;9.30;99.90;;;;;;5072636;28;19919;-75
2023/11/12 09:55:00;;;;;;;;;;;9.40;99.90;;;;;;5072612;28;19908;-75
2023/11/12 09:57:26;;;;;;;;;;;9.50;99.90;;;;;;5072705;28;19948;-74
2023/11/12 09:59:52;;;;;;;;;;;9.50;99.90;;;;;;5072454;28;20021;-75
2023/11/12 10:02:18;;;;;;;;;;;9.50;99.90;;;;;;5072306;28;19993;-74
2023/11/12 10:04:54;;;;;;;;;;;9.60;99.90;;;;;;5071396;28;19905;-74
2023/11/12 10:07:19;;;;;;;;;;;9.60;99.90;;;;;;5053687;28;20296;-74
2023/11/12 10:09:45;;;;;;;;;;;9.70;99.90;;;;;;5054250;28;20393;-75
2023/11/12 10:12:10;;;;;;;;;;;9.80;99.90;;;;;;5054186;28;19916;-74
2023/11/12 10:14:36;;;;;;;;;;;10.00;99.90;;;;;;5072263;28;20213;-75
2023/11/12 10:17:05;;;;;;;;;;;10.10;99.90;;;;;;5072005;28;19970;-75
2023/11/12 10:19:31;;;;;;;;;;;10.20;99.90;;;;;;5071773;28;20035;-74
2023/11/12 10:21:58;;;;;;;;;;;10.20;99.90;;;;;;5062328;28;20385;-75
2023/11/12 10:24:24;;;;;;;;;;;10.10;99.90;;;;;;5072486;28;19908;-75
2023/11/12 10:26:50;;;;;;;;;;;10.20;99.90;;;;;;5072590;28;20296;-75
2023/11/12 10:29:22;;;;;;;;;;;10.30;99.90;;;;;;5072194;28;19924;-75
2023/11/12 10:31:48;;;;;;;;;;;10.30;99.90;;;;;;5072214;28;19939;-74
2023/11/12 10:34:17;;;;;;;;;;;10.30;99.90;;;;;;5072174;28;20327;-75
2023/11/12 10:37:00;;;;;;;;;;;10.50;99.90;;;;;;5072603;28;19999;-75
2023/11/12 10:39:36;;;;;;;;;;;10.40;99.90;;;;;;5072408;28;20402;-75
2023/11/12 10:42:01;;;;;;;;;;;10.40;99.90;;;;;;5072425;28;19913;-75
2023/11/12 10:44:27;;;;;;;;;;;10.30;99.90;;;;;;5072021;28;19909;-75
2023/11/12 10:46:53;;;;;;;;;;;10.20;99.90;;;;;;5053933;28;19916;-75
2023/11/12 10:49:23;;;;;;;;;;;10.00;99.90;;;;;;5072058;28;19939;-75
2023/11/12 10:51:49;;;;;;;;;;;10.00;99.90;;;;;;5071970;28;19964;-74
2023/11/12 10:54:15;;;;;;;;;;;10.10;99.90;;;;;;5054213;28;19958;-75
2023/11/12 10:56:41;;;;;;;;;;;10.00;99.90;;;;;;5054208;28;19912;-75
2023/11/12 10:59:08;;;;;;;;;;;10.00;99.90;;;;;;5053749;28;20003;-75
2023/11/12 11:01:34;;;;;;;;;;;10.10;99.90;;;;;;5072406;28;20003;-75
2023/11/12 11:04:00;;;;;;;;;;;10.00;99.90;;;;;;5072219;28;19962;-75
2023/11/12 11:06:26;;;;;;;;;;;10.00;99.90;;;;;;5071752;28;20402;-75
2023/11/12 11:08:53;;;;;;;;;;;9.90;99.90;;;;;;5053941;28;19916;-75
2023/11/12 11:11:19;;;;;;;;;;;9.80;99.90;;;;;;5072213;28;19904;-74
2023/11/12 11:13:46;;;;;;;;;;;9.80;99.90;;;;;;5054024;28;20414;-74
2023/11/12 11:16:31;;;;;;;;;;;9.80;99.90;;;;;;5072203;28;19947;-75
2023/11/12 11:18:56;;;;;;;;;;;10.00;99.90;;;;;;5054286;28;19915;-75
2023/11/12 11:21:22;;;;;;;;;;;10.10;99.90;;;;;;5072577;28;19909;-75
2023/11/12 11:23:52;;;;;;;;;;;10.20;99.90;;;;;;5074033;28;19908;-76
2023/11/12 11:26:24;;;;;;;;;;;10.30;99.90;;;;;;5055642;28;20004;-75
2023/11/12 11:29:05;;;;;;;;;;;10.40;99.90;;;;;;5071370;28;19912;-75
2023/11/12 11:31:34;;;;;;;;;;;10.50;99.90;;;;;;5071070;28;19916;-74
2023/11/12 11:34:00;;;;;;;;;;;10.50;99.90;;;;;;5071213;28;19951;-75
2023/11/12 11:36:26;;;;;;;;;;;10.50;99.90;;;;;;5070886;28;19904;-74
2023/11/12 11:39:15;;;;;;;;;;;10.50;99.90;;;;;;5052921;28;19919;-75
2023/11/12 11:41:55;;;;;;;;;;;10.40;99.90;;;;;;5070915;28;20003;-75
2023/11/12 11:44:37;;;;;;;;;;;10.30;99.90;;;;;;5064531;28;19955;-75
2023/11/12 11:47:13;;;;;;;;;;;10.20;99.90;;;;;;5070723;28;19917;-76
2023/11/12 11:49:42;;;;;;;;;;;10.20;99.90;;;;;;5057820;28;20416;-74
2023/11/12 11:52:08;;;;;;;;;;;10.10;99.90;;;;;;5050598;28;20292;-75
2023/11/12 11:54:34;;;;;;;;;;;10.10;99.90;;;;;;5049335;28;20436;-75
2023/11/12 11:57:01;;;;;;;;;;;10.00;99.90;;;;;;5050588;28;19911;-75
2023/11/12 11:59:28;;;;;;;;;;;10.10;99.90;;;;;;5032763;28;19916;-75
2023/11/12 12:01:57;;;;;;;;;;;10.00;99.90;;;;;;5050485;28;19905;-74
2023/11/12 12:04:23;;;;;;;;;;;10.00;99.90;;;;;;5050113;28;20304;-75
2023/11/12 12:06:49;;;;;;;;;;;9.90;99.90;;;;;;5059087;28;19908;-74
2023/11/12 12:09:19;;;;;;;;;;;10.00;99.90;;;;;;5062569;28;19913;-75
2023/11/12 12:11:46;;;;;;;;;;;9.90;99.90;;;;;;5050559;28;20004;-75
2023/11/12 12:14:12;;;;;;;;;;;10.00;99.90;;;;;;5032508;28;20407;-75
2023/11/12 12:16:42;;;;;;;;;;;10.00;99.90;;;;;;5050360;28;19905;-75
2023/11/12 12:19:09;;;;;;;;;;;10.00;99.90;;;;;;5065579;28;20388;-75
2023/11/12 12:21:36;;;;;;;;;;;10.00;99.90;;;;;;5070513;28;19908;-75
2023/11/12 12:24:05;;;;;;;;;;;10.00;99.90;;;;;;5052745;28;19919;-75
2023/11/12 12:26:31;;;;;;;;;;;10.20;99.90;;;;;;5068879;28;20744;-75
2023/11/12 12:28:57;;;;;;;;;;;10.00;99.90;;;;;;5070244;28;19916;-75
2023/11/12 12:31:29;;;;;;;;;;;10.00;99.90;;;;;;5070532;28;20361;-75
2023/11/12 12:34:01;;;;;;;;;;;10.10;99.90;;;;;;5070337;28;19908;-75
2023/11/12 12:36:26;;;;;;;;;;;10.10;99.90;;;;;;5065274;28;19931;-75
2023/11/12 12:38:57;;;;;;;;;;;10.10;99.90;;;;;;5069924;28;20368;-75
2023/11/12 12:41:23;;;;;;;;;;;10.10;99.90;;;;;;5070257;28;20340;-74
2023/11/12 12:43:50;;;;;;;;;;;10.10;99.90;;;;;;5070760;28;20491;-75
2023/11/12 12:46:15;;;;;;;;;;;10.20;99.90;;;;;;5052121;28;19915;-75
2023/11/12 12:48:54;;;;;;;;;;;10.20;99.90;;;;;;5070402;28;19916;-74
2023/11/12 12:51:21;;;;;;;;;;;10.30;99.90;;;;;;5070445;28;19928;-75
2023/11/12 12:53:50;;;;;;;;;;;10.20;99.90;;;;;;5070192;28;19912;-75
2023/11/12 12:56:16;;;;;;;;;;;10.10;99.90;;;;;;5052313;28;19987;-75
2023/11/12 12:58:46;;;;;;;;;;;10.00;99.90;;;;;;5052234;28;19915;-75
2023/11/12 13:01:14;;;;;;;;;;;10.00;99.90;;;;;;5070634;28;20448;-75
2023/11/12 13:03:43;;;;;;;;;;;10.00;99.90;;;;;;5069059;28;19909;-75
2023/11/12 13:06:10;;;;;;;;;;;10.00;99.90;;;;;;5064001;28;19965;-75
2023/11/12 13:08:36;;;;;;;;;;;10.00;99.90;;;;;;5069001;28;19975;-75
2023/11/12 13:11:01;;;;;;;;;;;10.20;99.90;;;;;;5050230;28;20412;-75
2023/11/12 13:13:30;;;;;;;;;;;10.30;99.90;;;;;;5078403;28;19965;-75
2023/11/12 13:15:56;;;;;;;;;;;10.30;99.90;;;;;;5072375;28;19907;-75
2023/11/12 13:18:22;;;;;;;;;;;10.30;99.90;;;;;;5090524;28;20403;-74
2023/11/12 13:20:51;;;;;;;;;;;10.20;99.90;;;;;;5090648;28;20378;-74
2023/11/12 13:23:19;;;;;;;;;;;10.20;99.90;;;;;;5094563;28;19912;-75
2023/11/12 13:25:48;;;;;;;;;;;10.20;99.90;;;;;;5072897;28;19915;-75
2023/11/12 13:28:16;;;;;;;;;;;10.10;99.90;;;;;;5054597;28;20004;-75
2023/11/12 13:30:42;;;;;;;;;;;10.10;99.90;;;;;;5053482;28;20480;-75
2023/11/12 13:33:09;;;;;;;;;;;10.10;99.90;;;;;;5056873;28;20297;-76
2023/11/12 13:35:35;;;;;;;;;;;10.10;99.90;;;;;;5055087;28;19909;-75
2023/11/12 13:38:01;;;;;;;;;;;10.00;99.90;;;;;;5052962;28;19912;-75
2023/11/12 13:40:26;;;;;;;;;;;10.10;99.90;;;;;;5034871;28;19913;-74
2023/11/12 13:42:52;;;;;;;;;;;10.00;99.90;;;;;;5051872;28;19911;-75
2023/11/12 13:45:20;;;;;;;;;;;10.00;99.90;;;;;;5035104;28;19908;-75
2023/11/12 13:47:46;;;;;;;;;;;10.00;99.90;;;;;;5052921;28;20082;-75
2023/11/12 13:50:13;;;;;;;;;;;9.90;99.90;;;;;;5053031;28;20437;-75
2023/11/12 13:52:39;;;;;;;;;;;9.80;99.90;;;;;;5052786;28;19936;-75
2023/11/12 13:55:10;;;;;;;;;;;9.80;99.90;;;;;;5052776;28;19955;-76
2023/11/12 13:57:36;;;;;;;;;;;9.80;99.90;;;;;;5052408;28;19908;-75
2023/11/12 14:00:09;;;;;;;;;;;9.70;99.90;;;;;;5052637;28;19916;-75
2023/11/12 14:02:35;;;;;;;;;;;9.70;99.90;;;;;;5034865;28;19915;-75
2023/11/12 14:05:01;;;;;;;;;;;9.60;99.90;;;;;;5052556;28;20297;-75
2023/11/12 14:07:27;;;;;;;;;;;9.50;99.90;;;;;;5051167;28;20381;-75
2023/11/12 14:09:53;;;;;;;;;;;9.50;99.90;;;;;;5052686;28;20280;-76
2023/11/12 14:12:19;;;;;;;;;;;9.50;99.90;;;;;;5052244;28;19976;-75
2023/11/12 14:14:44;;;;;;;;;;;9.40;99.90;;;;;;5046035;28;20276;-75
2023/11/12 14:17:11;;;;;;;;;;;9.40;99.90;;;;;;5052436;28;19904;-75
2023/11/12 14:19:37;;;;;;;;;;;9.30;99.90;;;;;;5052377;28;19908;-75
2023/11/12 14:22:03;;;;;;;;;;;9.20;99.90;;;;;;5051265;28;20296;-75